createdAt,value
2019-04-29T00:01:34.013Z,2.43
2019-04-29T00:04:02.967Z,2.40
2019-04-29T00:06:31.934Z,2.50
2019-04-29T00:09:00.942Z,3.10
2019-04-29T00:11:31.512Z,3.57
2019-04-29T00:14:00.402Z,2.80
2019-04-29T00:16:38.447Z,2.90
2019-04-29T00:19:25.468Z,3.20
2019-04-29T00:21:54.959Z,3.07
2019-04-29T00:24:24.258Z,3.63
2019-04-29T00:26:53.709Z,2.63
2019-04-29T00:29:23.055Z,2.67
2019-04-29T00:31:52.433Z,2.57
2019-04-29T00:34:21.812Z,3.10
2019-04-29T00:36:55.652Z,3.80
2019-04-29T00:39:29.450Z,3.80
2019-04-29T00:42:15.449Z,3.50
2019-04-29T00:44:44.895Z,3.77
2019-04-29T00:47:14.373Z,4.17
2019-04-29T00:49:43.821Z,3.90
2019-04-29T00:52:13.336Z,3.73
2019-04-29T00:54:44.348Z,3.60
2019-04-29T00:57:13.688Z,3.87
2019-04-29T00:59:43.002Z,4.23
2019-04-29T01:02:12.829Z,4.10
2019-04-29T01:04:42.201Z,4.33
2019-04-29T01:07:11.689Z,4.30
2019-04-29T01:09:41.077Z,4.70
2019-04-29T01:12:10.524Z,4.70
2019-04-29T01:14:39.997Z,4.60
2019-04-29T01:17:09.479Z,4.47
2019-04-29T01:19:38.872Z,4.27
2019-04-29T01:22:09.262Z,3.97
2019-04-29T01:24:40.221Z,4.50
2019-04-29T01:27:17.210Z,4.30
2019-04-29T01:29:46.589Z,3.87
2019-04-29T01:32:16.027Z,3.90
2019-04-29T01:34:47.053Z,4.90
2019-04-29T01:37:16.537Z,3.87
2019-04-29T01:39:47.678Z,3.93
2019-04-29T01:42:18.630Z,3.87
2019-04-29T01:44:48.006Z,4.40
2019-04-29T01:47:17.323Z,4.67
2019-04-29T01:49:46.630Z,4.30
2019-04-29T01:52:15.939Z,3.83
2019-04-29T01:54:45.274Z,3.97
2019-04-29T01:57:14.577Z,4.20
2019-04-29T01:59:43.883Z,4.13
2019-04-29T02:02:13.359Z,4.33
2019-04-29T02:04:42.800Z,3.70
2019-04-29T02:07:12.292Z,3.80
2019-04-29T02:09:43.220Z,3.80
2019-04-29T02:12:12.545Z,4.03
2019-04-29T02:14:41.852Z,4.43
2019-04-29T02:17:11.159Z,4.40
2019-04-29T02:19:40.476Z,4.40
2019-04-29T02:22:11.500Z,4.27
2019-04-29T02:24:45.428Z,4.63
2019-04-29T02:27:14.740Z,4.27
2019-04-29T02:29:44.117Z,4.07
2019-04-29T02:32:13.470Z,4.53
2019-04-29T02:34:42.870Z,3.67
2019-04-29T02:37:13.959Z,3.70
2019-04-29T02:39:48.117Z,3.57
2019-04-29T02:42:35.541Z,4.33
2019-04-29T02:45:08.222Z,3.87
2019-04-29T02:47:37.634Z,3.80
2019-04-29T02:50:07.290Z,3.83
2019-04-29T02:52:36.676Z,3.90
2019-04-29T02:55:08.202Z,3.93
2019-04-29T02:57:41.730Z,3.77
2019-04-29T03:00:15.952Z,4.23
2019-04-29T03:02:46.977Z,4.37
2019-04-29T03:05:18.084Z,4.13
2019-04-29T03:07:47.574Z,4.10
2019-04-29T03:10:17.015Z,3.90
2019-04-29T03:12:46.420Z,3.90
2019-04-29T03:15:18.803Z,4.30
2019-04-29T03:17:48.349Z,3.83
2019-04-29T03:20:22.245Z,3.33
2019-04-29T03:22:53.544Z,4.17
2019-04-29T03:25:22.846Z,4.77
2019-04-29T03:27:52.159Z,4.20
2019-04-29T03:30:21.584Z,3.83
2019-04-29T03:32:50.999Z,4.37
2019-04-29T03:35:20.365Z,4.63
2019-04-29T03:37:49.913Z,3.97
2019-04-29T03:40:19.291Z,4.30
2019-04-29T03:42:49.978Z,4.60
2019-04-29T03:45:19.344Z,4.37
2019-04-29T03:47:48.652Z,4.30
2019-04-29T03:50:18.024Z,4.50
2019-04-29T03:52:47.365Z,4.00
2019-04-29T03:55:16.678Z,3.83
2019-04-29T03:57:46.070Z,4.37
2019-04-29T04:00:17.297Z,4.13
2019-04-29T04:03:00.548Z,3.20
2019-04-29T04:05:31.558Z,3.73
2019-04-29T04:08:17.528Z,3.03
2019-04-29T04:10:46.865Z,3.90
2019-04-29T04:13:16.252Z,3.50
2019-04-29T04:15:45.625Z,3.93
2019-04-29T04:18:16.679Z,3.10
2019-04-29T04:20:47.564Z,3.00
2019-04-29T04:23:16.862Z,3.90
2019-04-29T04:25:46.194Z,3.93
2019-04-29T04:28:15.494Z,4.13
2019-04-29T04:30:44.807Z,3.30
2019-04-29T04:33:14.152Z,3.60
2019-04-29T04:35:43.621Z,3.40
2019-04-29T04:38:12.975Z,3.87
2019-04-29T04:40:46.762Z,3.57
2019-04-29T04:43:16.141Z,3.57
2019-04-29T04:45:45.568Z,4.13
2019-04-29T04:48:15.160Z,3.77
2019-04-29T04:50:44.466Z,3.67
2019-04-29T04:53:13.846Z,3.70
2019-04-29T04:55:44.437Z,4.13
2019-04-29T04:58:15.249Z,4.20
2019-04-29T05:00:44.719Z,4.60
2019-04-29T05:03:14.068Z,4.17
2019-04-29T05:05:43.438Z,4.40
2019-04-29T05:08:12.871Z,5.17
2019-04-29T05:10:42.201Z,4.87
2019-04-29T05:13:11.597Z,4.00
2019-04-29T05:15:40.906Z,4.50
2019-04-29T05:18:10.220Z,5.30
2019-04-29T05:20:39.669Z,4.60
2019-04-29T05:23:10.454Z,5.13
2019-04-29T05:25:39.883Z,5.00
2019-04-29T05:28:09.197Z,4.60
2019-04-29T05:30:38.511Z,5.40
2019-04-29T05:33:07.867Z,6.53
2019-04-29T05:35:47.451Z,7.13
2019-04-29T05:38:24.311Z,6.23
2019-04-29T05:40:56.709Z,6.43
2019-04-29T05:43:32.030Z,7.60
2019-04-29T05:46:21.660Z,5.20
2019-04-29T05:48:50.618Z,5.90
2019-04-29T05:51:37.089Z,5.47
2019-04-29T05:54:13.631Z,6.80
2019-04-29T05:56:42.991Z,5.07
2019-04-29T05:59:12.880Z,4.53
2019-04-29T06:01:47.170Z,4.43
2019-04-29T06:04:16.345Z,4.03
2019-04-29T06:06:45.531Z,3.77
2019-04-29T06:09:16.756Z,3.97
2019-04-29T06:11:47.109Z,3.30
2019-04-29T06:14:16.493Z,3.33
2019-04-29T06:16:45.853Z,3.80
2019-04-29T06:19:15.159Z,3.13
2019-04-29T06:21:44.478Z,3.27
2019-04-29T06:24:13.884Z,3.67
2019-04-29T06:26:43.700Z,4.30
2019-04-29T06:29:13.276Z,5.30
2019-04-29T06:31:42.611Z,4.43
2019-04-29T06:34:11.915Z,3.57
2019-04-29T06:36:41.242Z,3.87
2019-04-29T06:39:10.629Z,3.03
2019-04-29T06:41:40.514Z,3.40
2019-04-29T06:44:16.040Z,3.50
2019-04-29T06:46:42.031Z,3.53
2019-04-29T06:49:11.376Z,3.60
2019-04-29T06:51:40.713Z,3.23
2019-04-29T06:54:10.197Z,3.57
2019-04-29T06:56:39.515Z,3.60
2019-04-29T06:59:12.259Z,3.80
2019-04-29T07:01:39.875Z,3.83
2019-04-29T07:04:09.182Z,3.70
2019-04-29T07:06:38.566Z,3.87
2019-04-29T07:09:08.067Z,3.67
2019-04-29T07:11:38.435Z,4.50
2019-04-29T07:14:07.842Z,4.13
2019-04-29T07:16:37.174Z,3.67
2019-04-29T07:19:07.009Z,3.50
2019-04-29T07:21:36.313Z,3.53
2019-04-29T07:24:05.692Z,4.03
2019-04-29T07:26:35.045Z,3.77
2019-04-29T07:29:04.571Z,3.27
2019-04-29T07:31:35.218Z,3.27
2019-04-29T07:34:04.824Z,3.90
2019-04-29T07:36:34.192Z,3.40
2019-04-29T07:39:05.450Z,3.87
2019-04-29T07:41:34.926Z,3.60
2019-04-29T07:44:04.473Z,4.20
2019-04-29T07:46:56.022Z,4.23
2019-04-29T07:49:12.803Z,4.13
2019-04-29T07:51:43.243Z,4.13
2019-04-29T07:54:15.905Z,3.50
2019-04-29T07:56:43.785Z,3.63
2019-04-29T07:59:12.945Z,3.30
2019-04-29T08:01:41.977Z,3.60
2019-04-29T08:04:10.939Z,2.50
2019-04-29T08:06:42.962Z,2.00
2019-04-29T08:09:11.049Z,2.30
2019-04-29T08:11:39.951Z,2.23
2019-04-29T08:14:08.929Z,2.87
2019-04-29T08:16:37.821Z,2.80
2019-04-29T08:19:06.838Z,2.90
2019-04-29T08:21:35.720Z,3.17
2019-04-29T08:24:04.689Z,3.73
2019-04-29T08:26:37.784Z,2.60
2019-04-29T08:29:04.335Z,3.50
2019-04-29T08:31:33.233Z,2.40
2019-04-29T08:34:02.142Z,2.30
2019-04-29T08:36:31.023Z,2.80
2019-04-29T08:39:08.236Z,2.53
2019-04-29T08:41:32.359Z,2.63
2019-04-29T08:44:16.161Z,2.50
2019-04-29T08:46:51.386Z,2.60
2019-04-29T08:49:14.898Z,2.40
2019-04-29T08:51:43.871Z,2.70
2019-04-29T08:54:16.028Z,2.60
2019-04-29T08:57:01.882Z,3.13
2019-04-29T08:59:14.962Z,2.97
2019-04-29T09:01:43.848Z,2.20
2019-04-29T09:04:12.743Z,2.50
2019-04-29T09:06:41.649Z,2.30
2019-04-29T09:09:28.090Z,2.60
2019-04-29T09:11:43.689Z,2.90
2019-04-29T09:14:13.005Z,2.83
2019-04-29T09:16:42.104Z,2.67
2019-04-29T09:19:11.064Z,2.70
2019-04-29T09:21:41.717Z,2.70
2019-04-29T09:24:10.668Z,3.30
2019-04-29T09:26:44.057Z,2.40
2019-04-29T09:29:31.075Z,2.93
2019-04-29T09:32:00.587Z,3.50
2019-04-29T09:34:29.469Z,3.33
2019-04-29T09:36:59.329Z,2.90
2019-04-29T09:39:41.942Z,2.50
2019-04-29T09:42:03.629Z,3.20
2019-04-29T09:44:52.378Z,3.00
2019-04-29T09:47:21.253Z,2.80
2019-04-29T09:49:50.152Z,3.13
2019-04-29T09:52:19.087Z,3.33
2019-04-29T09:54:48.126Z,2.60
2019-04-29T09:57:17.056Z,2.83
2019-04-29T09:59:47.598Z,2.33
2019-04-29T10:02:31.520Z,2.77
2019-04-29T10:05:15.058Z,2.53
2019-04-29T10:07:44.025Z,2.30
2019-04-29T10:10:13.377Z,2.50
2019-04-29T10:12:42.361Z,2.70
2019-04-29T10:15:12.958Z,2.63
2019-04-29T10:17:50.839Z,3.03
2019-04-29T10:20:18.920Z,2.67
2019-04-29T10:22:50.247Z,2.60
2019-04-29T10:25:18.698Z,2.67
2019-04-29T10:27:47.662Z,2.33
2019-04-29T10:30:18.072Z,2.60
2019-04-29T10:32:47.024Z,2.67
2019-04-29T10:35:15.957Z,2.77
2019-04-29T10:37:44.851Z,2.73
2019-04-29T10:40:34.991Z,2.80
2019-04-29T10:43:15.401Z,3.10
2019-04-29T10:46:00.992Z,3.03
2019-04-29T10:48:34.300Z,2.73
2019-04-29T10:51:04.335Z,2.70
2019-04-29T10:53:33.393Z,3.00
2019-04-29T10:56:05.806Z,3.43
2019-04-29T10:58:35.721Z,2.63
2019-04-29T11:01:29.269Z,3.03
2019-04-29T11:04:00.863Z,2.50
2019-04-29T11:06:26.795Z,3.00
2019-04-29T11:08:57.513Z,2.90
2019-04-29T11:11:28.036Z,2.80
2019-04-29T11:13:57.532Z,2.90
2019-04-29T11:16:45.289Z,2.90
2019-04-29T11:19:00.159Z,3.00
2019-04-29T11:21:29.461Z,3.20
2019-04-29T11:24:06.906Z,2.80
2019-04-29T11:26:49.172Z,3.37
2019-04-29T11:29:22.067Z,3.00
2019-04-29T11:31:54.065Z,2.57
2019-04-29T11:34:33.275Z,3.73
2019-04-29T11:37:01.756Z,4.60
2019-04-29T11:39:30.882Z,4.63
2019-04-29T11:42:01.489Z,4.70
2019-04-29T11:44:31.926Z,3.90
2019-04-29T11:47:01.010Z,4.30
2019-04-29T11:49:31.584Z,4.50
2019-04-29T11:52:10.029Z,4.10
2019-04-29T11:54:31.100Z,4.00
2019-04-29T11:57:00.129Z,3.70
2019-04-29T11:59:30.935Z,3.87
2019-04-29T12:02:18.160Z,4.13
2019-04-29T12:04:51.885Z,4.43
2019-04-29T12:07:21.262Z,4.00
2019-04-29T12:09:50.492Z,4.20
2019-04-29T12:12:19.958Z,4.50
2019-04-29T12:14:50.506Z,3.70
2019-04-29T12:17:46.074Z,3.83
2019-04-29T12:20:25.360Z,4.17
2019-04-29T12:22:54.249Z,3.77
2019-04-29T12:25:27.532Z,3.53
2019-04-29T12:28:01.625Z,4.37
2019-04-29T12:30:29.798Z,3.30
2019-04-29T12:33:01.337Z,3.63
2019-04-29T12:35:51.719Z,3.70
2019-04-29T12:38:24.122Z,3.87
2019-04-29T12:41:20.663Z,3.80
2019-04-29T12:43:59.363Z,4.10
2019-04-29T12:46:35.860Z,3.80
2019-04-29T12:49:08.660Z,4.03
2019-04-29T12:51:35.588Z,4.03
2019-04-29T12:54:04.545Z,3.57
2019-04-29T12:56:35.184Z,4.67
2019-04-29T12:59:04.561Z,3.93
2019-04-29T13:01:51.038Z,4.20
2019-04-29T13:04:23.884Z,3.60
2019-04-29T13:06:54.494Z,3.43
2019-04-29T13:09:28.611Z,3.93
2019-04-29T13:12:17.163Z,4.10
2019-04-29T13:14:33.134Z,3.70
2019-04-29T13:17:14.427Z,4.10
2019-04-29T13:19:39.866Z,3.40
2019-04-29T13:22:10.612Z,3.03
2019-04-29T13:24:42.712Z,3.40
2019-04-29T13:27:16.384Z,3.23
2019-04-29T13:29:40.942Z,3.63
2019-04-29T13:32:09.897Z,3.47
2019-04-29T13:34:40.500Z,3.50
2019-04-29T13:37:18.354Z,4.00
2019-04-29T13:39:55.219Z,4.17
2019-04-29T13:42:21.186Z,3.60
2019-04-29T13:45:05.051Z,3.53
2019-04-29T13:47:30.840Z,3.63
2019-04-29T13:50:17.149Z,3.77
2019-04-29T13:52:31.428Z,3.93
2019-04-29T13:55:16.654Z,3.50
2019-04-29T13:57:32.160Z,3.27
2019-04-29T14:00:19.907Z,3.80
2019-04-29T14:02:58.821Z,3.20
2019-04-29T14:05:22.379Z,3.27
2019-04-29T14:07:52.736Z,4.03
2019-04-29T14:10:21.842Z,4.70
2019-04-29T14:13:05.098Z,3.73
2019-04-29T14:15:22.587Z,4.20
2019-04-29T14:17:51.486Z,4.33
2019-04-29T14:20:20.509Z,4.30
2019-04-29T14:22:49.400Z,4.27
2019-04-29T14:25:18.352Z,3.73
2019-04-29T14:27:47.285Z,4.27
2019-04-29T14:30:20.668Z,3.97
2019-04-29T14:32:50.338Z,3.97
2019-04-29T14:35:23.903Z,3.80
2019-04-29T14:38:05.287Z,4.37
2019-04-29T14:40:43.959Z,3.50
2019-04-29T14:43:32.441Z,3.90
2019-04-29T14:46:05.960Z,4.17
2019-04-29T14:48:42.565Z,3.87
2019-04-29T14:51:08.272Z,3.97
2019-04-29T14:53:37.162Z,3.87
2019-04-29T14:56:06.061Z,4.03
2019-04-29T14:58:35.202Z,3.63
2019-04-29T15:01:23.607Z,3.50
2019-04-29T15:04:18.063Z,3.67
2019-04-29T15:06:38.072Z,4.17
2019-04-29T15:09:17.034Z,4.50
2019-04-29T15:11:58.899Z,4.63
2019-04-29T15:14:47.610Z,4.40
2019-04-29T15:17:24.682Z,4.40
2019-04-29T15:20:11.775Z,4.27
2019-04-29T15:22:41.626Z,4.13
2019-04-29T15:25:10.876Z,4.30
2019-04-29T15:27:39.776Z,4.00
2019-04-29T15:30:08.845Z,4.07
2019-04-29T15:32:37.810Z,3.63
2019-04-29T15:35:06.917Z,4.07
2019-04-29T15:37:35.826Z,4.70
2019-04-29T15:40:07.073Z,4.40
2019-04-29T15:42:37.970Z,4.63
2019-04-29T15:45:06.740Z,3.93
2019-04-29T15:47:35.738Z,4.03
2019-04-29T15:50:18.300Z,4.10
2019-04-29T15:52:36.333Z,4.53
2019-04-29T15:55:05.406Z,4.00
2019-04-29T15:57:35.664Z,4.40
2019-04-29T16:02:43.265Z,4.23
2019-04-29T16:05:29.685Z,4.07
2019-04-29T16:08:06.035Z,4.13
2019-04-29T16:10:57.944Z,4.20
2019-04-29T16:13:27.666Z,4.17
2019-04-29T16:15:54.471Z,4.27
2019-04-29T16:18:23.364Z,4.00
2019-04-29T16:20:54.155Z,3.90
2019-04-29T16:23:23.905Z,4.10
2019-04-29T16:25:54.527Z,4.17
2019-04-29T16:28:31.379Z,4.17
2019-04-29T16:30:56.527Z,4.40
2019-04-29T16:33:25.476Z,4.33
2019-04-29T16:35:57.603Z,4.87
2019-04-29T16:38:25.045Z,3.80
2019-04-29T16:40:57.194Z,4.80
2019-04-29T16:43:43.252Z,5.13
2019-04-29T16:46:16.806Z,4.87
2019-04-29T16:48:45.806Z,4.23
2019-04-29T16:51:16.736Z,4.40
2019-04-29T16:53:45.360Z,4.10
2019-04-29T16:56:16.344Z,4.27
2019-04-29T16:58:44.951Z,4.33
2019-04-29T17:01:13.968Z,4.43
2019-04-29T17:03:42.869Z,4.37
2019-04-29T17:06:12.730Z,4.70
2019-04-29T17:08:50.723Z,4.63
2019-04-29T17:11:21.488Z,4.67
2019-04-29T17:13:50.410Z,5.20
2019-04-29T17:16:38.566Z,4.60
2019-04-29T17:19:07.489Z,4.93
2019-04-29T17:21:36.448Z,4.90
2019-04-29T17:24:05.401Z,4.87
2019-04-29T17:26:36.017Z,5.07
2019-04-29T17:29:26.696Z,4.30
2019-04-29T17:34:56.084Z,4.83
2019-04-29T17:35:13.886Z,3.93
2019-04-29T17:35:18.038Z,4.60
2019-04-29T17:36:58.498Z,4.60
2019-04-29T17:39:27.534Z,3.97
2019-04-29T17:41:56.562Z,4.40
2019-04-29T17:44:29.909Z,4.37
2019-04-29T17:47:07.142Z,3.67
2019-04-29T17:49:38.506Z,4.73
2019-04-29T17:52:09.103Z,4.10
2019-04-29T17:54:44.941Z,4.07
2019-04-29T17:57:26.476Z,4.50
2019-04-29T18:00:00.495Z,4.00
2019-04-29T18:02:42.384Z,4.30
2019-04-29T18:05:21.641Z,4.10
2019-04-29T18:07:52.343Z,4.37
2019-04-29T18:10:40.294Z,4.30
2019-04-29T18:13:12.382Z,4.10
2019-04-29T18:15:57.858Z,4.37
2019-04-29T18:18:17.424Z,3.87
2019-04-29T18:21:06.409Z,4.20
2019-04-29T18:23:46.994Z,4.20
2019-04-29T18:26:17.295Z,4.53
2019-04-29T18:28:46.331Z,3.80
2019-04-29T18:31:15.223Z,4.00
2019-04-29T18:33:45.120Z,4.53
2019-04-29T18:36:21.814Z,3.97
2019-04-29T18:38:47.540Z,4.17
2019-04-29T18:41:24.257Z,4.20
2019-04-29T18:43:47.047Z,3.70
2019-04-29T18:46:16.711Z,3.87
2019-04-29T18:48:45.858Z,4.07
2019-04-29T18:51:15.379Z,4.30
2019-04-29T18:53:44.363Z,3.53
2019-04-29T18:56:14.809Z,3.67
2019-04-29T18:58:46.808Z,3.70
2019-04-29T19:01:14.429Z,3.53
2019-04-29T19:03:55.635Z,3.30
2019-04-29T19:06:24.841Z,3.87
2019-04-29T19:08:56.594Z,4.00
2019-04-29T19:11:30.657Z,3.70
2019-04-29T19:13:55.007Z,3.30
2019-04-29T19:16:27.389Z,3.53
2019-04-29T19:19:00.136Z,3.73
2019-04-29T19:21:30.433Z,3.73
2019-04-29T19:24:00.562Z,4.07
2019-04-29T19:26:27.647Z,3.73
2019-04-29T19:28:56.858Z,4.23
2019-04-29T19:31:25.884Z,3.87
2019-04-29T19:33:55.078Z,4.10
2019-04-29T19:36:25.435Z,3.77
2019-04-29T19:38:55.097Z,3.37
2019-04-29T19:41:25.634Z,3.73
2019-04-29T19:43:56.377Z,4.10
2019-04-29T19:46:36.832Z,4.00
2019-04-29T19:48:58.256Z,3.80
2019-04-29T19:51:26.649Z,4.20
2019-04-29T19:53:55.629Z,3.90
2019-04-29T19:56:26.897Z,4.37
2019-04-29T19:58:57.699Z,4.17
2019-04-29T20:01:30.858Z,4.30
2019-04-29T20:03:58.914Z,4.60
2019-04-29T20:06:30.412Z,4.37
2019-04-29T20:09:02.015Z,5.00
2019-04-29T20:11:33.581Z,4.60
2019-04-29T20:14:05.756Z,4.33
2019-04-29T20:16:43.478Z,4.07
2019-04-29T20:19:29.510Z,5.60
2019-04-29T20:22:00.443Z,5.67
2019-04-29T20:24:30.931Z,6.60
2019-04-29T20:26:59.905Z,5.73
2019-04-29T20:29:34.007Z,5.23
2019-04-29T20:32:00.683Z,4.90
2019-04-29T20:34:29.767Z,4.60
2019-04-29T20:36:58.754Z,4.50
2019-04-29T20:39:27.911Z,4.63
2019-04-29T20:42:00.971Z,4.30
2019-04-29T20:44:27.765Z,4.80
2019-04-29T20:47:14.006Z,4.30
2019-04-29T20:49:30.854Z,4.60
2019-04-29T20:52:00.680Z,4.70
2019-04-29T20:54:31.623Z,5.00
2019-04-29T20:57:05.005Z,4.60
2019-04-29T20:59:31.346Z,5.33
2019-04-29T21:02:12.191Z,5.30
2019-04-29T21:04:39.204Z,5.37
2019-04-29T21:07:03.952Z,4.57
2019-04-29T21:09:32.931Z,5.17
2019-04-29T21:12:06.697Z,5.23
2019-04-29T21:14:38.133Z,4.80
2019-04-29T21:17:10.895Z,5.03
2019-04-29T21:19:38.040Z,4.63
2019-04-29T21:22:06.933Z,4.77
2019-04-29T21:24:37.352Z,4.97
2019-04-29T21:27:06.243Z,5.50
2019-04-29T21:29:35.831Z,4.97
2019-04-29T21:32:05.879Z,5.23
2019-04-29T21:34:39.489Z,4.90
2019-04-29T21:37:16.239Z,4.83
2019-04-29T21:39:46.916Z,5.37
2019-04-29T21:42:35.101Z,5.00
2019-04-29T21:45:03.919Z,5.67
2019-04-29T21:47:41.752Z,6.63
2019-04-29T21:50:01.061Z,5.27
2019-04-29T21:52:30.111Z,5.40
2019-04-29T21:54:59.019Z,4.73
2019-04-29T21:57:27.981Z,5.67
2019-04-29T21:59:56.887Z,5.83
2019-04-29T22:02:26.150Z,5.73
2019-04-29T22:04:55.289Z,6.87
2019-04-29T22:07:25.834Z,5.77
2019-04-29T22:09:55.600Z,6.37
2019-04-29T22:12:24.692Z,7.23
2019-04-29T22:14:54.185Z,6.53
2019-04-29T22:17:32.679Z,6.20
2019-04-29T22:19:57.328Z,7.47
2019-04-29T22:22:30.583Z,6.80
2019-04-29T22:25:05.929Z,6.50
2019-04-29T22:27:34.071Z,7.07
2019-04-29T22:30:00.864Z,6.63
2019-04-29T22:32:29.833Z,7.53
2019-04-29T22:35:01.175Z,6.97
2019-04-29T22:37:34.650Z,6.77
2019-04-29T22:40:03.131Z,7.27
2019-04-29T22:42:35.491Z,7.33
2019-04-29T22:45:06.200Z,7.53
2019-04-29T22:47:35.171Z,7.80
2019-04-29T22:50:04.852Z,7.93
2019-04-29T22:52:34.853Z,8.83
2019-04-29T22:55:05.841Z,8.43
2019-04-29T22:57:34.800Z,8.03
2019-04-29T23:00:05.241Z,8.13
2019-04-29T23:02:35.741Z,8.87
2019-04-29T23:05:05.224Z,9.07
2019-04-29T23:07:35.228Z,10.17
2019-04-29T23:10:06.530Z,8.97
2019-04-29T23:12:36.494Z,10.90
2019-04-29T23:15:06.055Z,9.67
2019-04-29T23:17:35.460Z,11.30
2019-04-29T23:20:12.096Z,10.33
2019-04-29T23:22:42.676Z,10.07
2019-04-29T23:25:13.280Z,10.47
2019-04-29T23:27:42.171Z,11.47
2019-04-29T23:30:13.577Z,11.97
2019-04-29T23:32:47.337Z,11.60
2019-04-29T23:35:14.862Z,11.97
2019-04-29T23:37:45.630Z,11.80
2019-04-29T23:40:14.833Z,12.00
2019-04-29T23:42:47.808Z,11.90
2019-04-29T23:45:20.796Z,12.10
2019-04-29T23:47:46.978Z,11.03
2019-04-29T23:50:18.708Z,12.20
2019-04-29T23:52:51.710Z,13.07
2019-04-29T23:55:20.496Z,13.13
2019-04-29T23:58:02.665Z,13.23
